createdAt,value
2018-05-06T00:00:00.426Z,20.98
2018-05-06T00:01:02.938Z,20.98
2018-05-06T00:02:05.425Z,20.98
2018-05-06T00:03:07.909Z,20.98
2018-05-06T00:04:10.392Z,20.98
2018-05-06T00:05:12.881Z,20.98
2018-05-06T00:06:15.398Z,20.98
2018-05-06T00:07:17.865Z,20.98
2018-05-06T00:08:20.334Z,20.98
2018-05-06T00:09:22.817Z,20.98
2018-05-06T00:10:25.309Z,20.97
2018-05-06T00:11:27.832Z,20.98
2018-05-06T00:12:30.322Z,20.98
2018-05-06T00:13:32.805Z,20.97
2018-05-06T00:14:35.294Z,20.98
2018-05-06T00:15:37.786Z,20.98
2018-05-06T00:16:40.293Z,20.99
2018-05-06T00:17:42.803Z,20.98
2018-05-06T00:18:45.274Z,20.99
2018-05-06T00:19:47.783Z,20.99
2018-05-06T00:20:50.265Z,20.99
2018-05-06T00:21:52.780Z,20.99
2018-05-06T00:22:55.272Z,20.99
2018-05-06T00:23:57.756Z,20.99
2018-05-06T00:25:00.238Z,21.00
2018-05-06T00:26:02.724Z,21.00
2018-05-06T00:27:05.224Z,21.00
2018-05-06T00:28:07.751Z,21.01
2018-05-06T00:29:10.310Z,21.00
2018-05-06T00:30:12.870Z,21.01
2018-05-06T00:31:15.342Z,21.01
2018-05-06T00:32:17.888Z,21.01
2018-05-06T00:33:20.395Z,21.01
2018-05-06T00:34:22.907Z,21.01
2018-05-06T00:35:25.394Z,21.00
2018-05-06T00:36:29.047Z,21.00
2018-05-06T00:37:31.580Z,21.01
2018-05-06T00:38:34.168Z,21.01
2018-05-06T00:39:36.663Z,21.01
2018-05-06T00:40:39.153Z,21.02
2018-05-06T00:41:41.642Z,21.03
2018-05-06T00:42:44.157Z,21.05
2018-05-06T00:43:46.661Z,21.06
2018-05-06T00:44:49.147Z,21.06
2018-05-06T00:45:51.629Z,21.07
2018-05-06T00:46:54.116Z,21.08
2018-05-06T00:47:56.700Z,21.08
2018-05-06T00:48:59.259Z,21.08
2018-05-06T00:50:01.749Z,21.09
2018-05-06T00:51:04.277Z,21.09
2018-05-06T00:52:06.760Z,21.10
2018-05-06T00:53:09.289Z,21.10
2018-05-06T00:54:23.734Z,21.10
2018-05-06T00:55:26.220Z,21.10
2018-05-06T00:56:28.725Z,21.10
2018-05-06T00:57:31.289Z,21.10
2018-05-06T00:58:33.806Z,21.10
2018-05-06T00:59:36.295Z,21.10
2018-05-06T01:00:38.864Z,21.11
2018-05-06T01:01:41.356Z,21.11
2018-05-06T01:02:43.864Z,21.11
2018-05-06T01:03:46.391Z,21.11
2018-05-06T01:04:48.881Z,21.11
2018-05-06T01:05:51.381Z,21.11
2018-05-06T01:06:53.876Z,21.11
2018-05-06T01:07:56.405Z,21.11
2018-05-06T01:08:58.967Z,21.11
2018-05-06T01:10:01.531Z,21.12
2018-05-06T01:11:04.051Z,21.12
2018-05-06T01:12:06.642Z,21.12
2018-05-06T01:13:09.206Z,21.13
2018-05-06T01:14:11.769Z,21.13
2018-05-06T01:15:14.261Z,21.13
2018-05-06T01:16:16.747Z,21.13
2018-05-06T01:17:19.256Z,21.13
2018-05-06T01:18:21.897Z,21.13
2018-05-06T01:19:24.431Z,21.14
2018-05-06T01:20:26.904Z,21.13
2018-05-06T01:21:29.392Z,21.14
2018-05-06T01:22:31.881Z,21.14
2018-05-06T01:23:34.371Z,21.15
2018-05-06T01:24:36.876Z,21.16
2018-05-06T01:25:39.365Z,21.16
2018-05-06T01:26:41.862Z,21.16
2018-05-06T01:27:44.349Z,21.16
2018-05-06T01:28:46.855Z,21.16
2018-05-06T01:29:49.354Z,21.16
2018-05-06T01:30:51.845Z,21.16
2018-05-06T01:31:54.323Z,21.16
2018-05-06T01:32:56.794Z,21.16
2018-05-06T01:33:59.277Z,21.16
2018-05-06T01:35:01.770Z,21.16
2018-05-06T01:36:04.271Z,21.16
2018-05-06T01:37:06.747Z,21.17
2018-05-06T01:38:09.237Z,21.17
2018-05-06T01:39:12.513Z,21.16
2018-05-06T01:40:15.055Z,21.16
2018-05-06T01:41:17.528Z,21.17
2018-05-06T01:42:20.075Z,21.17
2018-05-06T01:43:22.631Z,21.17
2018-05-06T01:44:25.190Z,21.17
2018-05-06T01:45:27.704Z,21.16
2018-05-06T01:46:30.192Z,21.16
2018-05-06T01:47:32.771Z,21.17
2018-05-06T01:48:35.330Z,21.17
2018-05-06T01:49:37.889Z,21.16
2018-05-06T01:50:40.451Z,21.17
2018-05-06T01:51:42.924Z,21.16
2018-05-06T01:52:45.407Z,21.17
2018-05-06T01:53:47.892Z,21.17
2018-05-06T01:54:50.380Z,21.16
2018-05-06T01:55:52.870Z,21.16
2018-05-06T01:56:55.342Z,21.17
2018-05-06T01:57:57.843Z,21.16
2018-05-06T01:59:00.337Z,21.16
2018-05-06T02:00:02.812Z,21.16
2018-05-06T02:01:05.314Z,21.16
2018-05-06T02:02:07.858Z,21.16
2018-05-06T02:03:10.359Z,21.17
2018-05-06T02:04:12.836Z,21.17
2018-05-06T02:05:15.323Z,21.17
2018-05-06T02:06:17.831Z,21.16
2018-05-06T02:07:20.319Z,21.16
2018-05-06T02:08:22.808Z,21.16
2018-05-06T02:09:25.320Z,21.16
2018-05-06T02:10:27.795Z,21.17
2018-05-06T02:11:30.304Z,21.17
2018-05-06T02:12:32.794Z,21.16
2018-05-06T02:13:35.281Z,21.16
2018-05-06T02:14:37.766Z,21.16
2018-05-06T02:15:40.261Z,21.17
2018-05-06T02:16:42.759Z,21.18
2018-05-06T02:17:45.263Z,21.17
2018-05-06T02:18:47.767Z,21.17
2018-05-06T02:19:50.234Z,21.18
2018-05-06T02:20:52.736Z,21.17
2018-05-06T02:21:55.259Z,21.17
2018-05-06T02:22:57.763Z,21.17
2018-05-06T02:24:00.254Z,21.17
2018-05-06T02:25:02.755Z,21.18
2018-05-06T02:26:05.268Z,21.17
2018-05-06T02:27:07.784Z,21.17
2018-05-06T02:28:10.263Z,21.17
2018-05-06T02:29:12.731Z,21.17
2018-05-06T02:30:15.261Z,21.17
2018-05-06T02:31:17.762Z,21.17
2018-05-06T02:32:20.255Z,21.18
2018-05-06T02:33:22.760Z,21.17
2018-05-06T02:34:25.279Z,21.17
2018-05-06T02:35:27.857Z,21.17
2018-05-06T02:36:30.361Z,21.17
2018-05-06T02:37:32.921Z,21.17
2018-05-06T02:38:35.408Z,21.16
2018-05-06T02:39:37.893Z,21.18
2018-05-06T02:40:40.401Z,21.18
2018-05-06T02:41:42.959Z,21.19
2018-05-06T02:42:45.442Z,21.19
2018-05-06T02:43:47.941Z,21.21
2018-05-06T02:44:50.531Z,21.21
2018-05-06T02:45:53.025Z,21.21
2018-05-06T02:46:55.554Z,21.22
2018-05-06T02:47:58.040Z,21.22
2018-05-06T02:49:00.571Z,21.23
2018-05-06T02:50:03.130Z,21.23
2018-05-06T02:51:05.629Z,21.23
2018-05-06T02:52:08.148Z,21.24
2018-05-06T02:53:10.667Z,21.25
2018-05-06T02:54:13.166Z,21.26
2018-05-06T02:55:15.726Z,21.25
2018-05-06T02:56:18.213Z,21.25
2018-05-06T02:57:20.700Z,21.26
2018-05-06T02:58:23.221Z,21.26
2018-05-06T02:59:25.766Z,21.26
2018-05-06T03:00:28.322Z,21.26
2018-05-06T03:01:30.883Z,21.26
2018-05-06T03:02:33.362Z,21.26
2018-05-06T03:03:35.845Z,21.25
2018-05-06T03:04:38.348Z,21.25
2018-05-06T03:05:40.858Z,21.25
2018-05-06T03:06:43.360Z,21.25
2018-05-06T03:07:45.936Z,21.25
2018-05-06T03:08:48.433Z,21.23
2018-05-06T03:09:50.950Z,21.23
2018-05-06T03:10:53.451Z,21.23
2018-05-06T03:11:55.941Z,21.23
2018-05-06T03:12:58.433Z,21.23
2018-05-06T03:14:00.988Z,21.23
2018-05-06T03:15:03.551Z,21.22
2018-05-06T03:16:06.110Z,21.23
2018-05-06T03:17:08.671Z,21.23
2018-05-06T03:18:11.171Z,21.23
2018-05-06T03:19:13.661Z,21.23
2018-05-06T03:20:16.148Z,21.24
2018-05-06T03:21:18.618Z,21.24
2018-05-06T03:22:21.101Z,21.24
2018-05-06T03:23:23.723Z,21.24
2018-05-06T03:24:26.282Z,21.24
2018-05-06T03:25:28.845Z,21.24
2018-05-06T03:26:31.357Z,21.24
2018-05-06T03:27:33.858Z,21.23
2018-05-06T03:28:36.424Z,21.24
2018-05-06T03:29:38.925Z,21.23
2018-05-06T03:30:41.428Z,21.22
2018-05-06T03:31:43.932Z,21.22
2018-05-06T03:32:46.421Z,21.23
2018-05-06T03:33:48.912Z,21.23
2018-05-06T03:34:51.406Z,21.22
2018-05-06T03:35:53.930Z,21.22
2018-05-06T03:36:56.439Z,21.23
2018-05-06T03:37:58.984Z,21.24
2018-05-06T03:39:01.499Z,21.23
2018-05-06T03:40:04.010Z,21.23
2018-05-06T03:41:06.505Z,21.24
2018-05-06T03:42:08.989Z,21.23
2018-05-06T03:43:11.495Z,21.23
2018-05-06T03:44:13.971Z,21.23
2018-05-06T03:45:16.476Z,21.24
2018-05-06T03:46:18.947Z,21.25
2018-05-06T03:47:21.414Z,21.24
2018-05-06T03:48:23.915Z,21.24
2018-05-06T03:49:26.416Z,21.24
2018-05-06T03:50:28.906Z,21.24
2018-05-06T03:51:31.378Z,21.23
2018-05-06T03:52:33.853Z,21.23
2018-05-06T03:53:36.341Z,21.23
2018-05-06T03:54:38.814Z,21.22
2018-05-06T03:55:41.321Z,21.21
2018-05-06T03:57:04.556Z,21.22
2018-05-06T03:58:18.807Z,21.21
2018-05-06T04:01:01.221Z,21.23
2018-05-06T04:03:51.677Z,21.24
2018-05-06T04:04:54.187Z,21.25
2018-05-06T04:05:56.706Z,21.25
2018-05-06T04:06:59.227Z,21.24
2018-05-06T04:08:01.732Z,21.24
2018-05-06T04:09:04.229Z,21.23
2018-05-06T04:10:06.712Z,21.24
2018-05-06T04:11:09.208Z,21.25
2018-05-06T04:12:11.714Z,21.25
2018-05-06T04:13:14.186Z,21.25
2018-05-06T04:14:16.686Z,21.26
2018-05-06T04:15:19.184Z,21.25
2018-05-06T04:16:21.703Z,21.24
2018-05-06T04:17:24.191Z,21.24
2018-05-06T04:18:26.681Z,21.25
2018-05-06T04:19:29.231Z,21.24
2018-05-06T04:20:31.725Z,21.24
2018-05-06T04:21:34.227Z,21.24
2018-05-06T04:22:36.738Z,21.24
2018-05-06T04:23:39.229Z,21.24
2018-05-06T04:24:41.698Z,21.24
2018-05-06T04:25:44.166Z,21.23
2018-05-06T04:26:46.729Z,21.22
2018-05-06T04:27:49.192Z,21.21
2018-05-06T04:28:51.695Z,21.20
2018-05-06T04:29:54.209Z,21.18
2018-05-06T04:30:56.696Z,21.17
2018-05-06T04:31:59.164Z,21.16
2018-05-06T04:33:01.662Z,21.14
2018-05-06T04:34:04.153Z,21.13
2018-05-06T04:35:06.670Z,21.12
2018-05-06T04:36:09.149Z,21.11
2018-05-06T04:37:11.658Z,21.11
2018-05-06T04:38:14.126Z,21.10
2018-05-06T04:39:16.619Z,21.09
2018-05-06T04:40:19.138Z,21.08
2018-05-06T04:41:21.614Z,21.07
2018-05-06T04:42:24.131Z,21.06
2018-05-06T04:43:26.617Z,21.05
2018-05-06T04:44:29.110Z,21.05
2018-05-06T04:45:31.600Z,21.04
2018-05-06T04:46:34.085Z,21.05
2018-05-06T04:47:36.593Z,21.04
2018-05-06T04:48:39.081Z,21.03
2018-05-06T04:49:41.568Z,21.04
2018-05-06T04:50:44.067Z,21.03
2018-05-06T04:51:46.565Z,21.02
2018-05-06T04:52:49.074Z,21.01
2018-05-06T04:53:51.550Z,21.02
2018-05-06T04:54:54.018Z,21.02
2018-05-06T04:55:56.490Z,21.01
2018-05-06T04:56:59.000Z,21.00
2018-05-06T04:58:01.489Z,21.00
2018-05-06T04:59:04.000Z,20.99
2018-05-06T05:00:06.507Z,20.98
2018-05-06T05:01:08.996Z,20.98
2018-05-06T05:02:11.528Z,20.98
2018-05-06T05:03:14.015Z,20.97
2018-05-06T05:04:16.508Z,20.97
2018-05-06T05:05:18.976Z,20.97
2018-05-06T05:06:21.480Z,20.97
2018-05-06T05:07:23.950Z,20.96
2018-05-06T05:08:26.466Z,20.96
2018-05-06T05:09:29.014Z,20.96
2018-05-06T05:10:31.445Z,20.96
2018-05-06T05:11:33.963Z,20.96
2018-05-06T05:12:36.463Z,20.96
2018-05-06T05:13:38.935Z,20.96
2018-05-06T05:14:41.417Z,20.96
2018-05-06T05:15:43.903Z,20.96
2018-05-06T05:16:46.410Z,20.96
2018-05-06T05:17:48.887Z,20.95
2018-05-06T05:18:51.367Z,20.95
2018-05-06T05:19:53.850Z,20.96
2018-05-06T05:20:56.449Z,20.95
2018-05-06T05:21:58.881Z,20.96
2018-05-06T05:23:01.388Z,20.95
2018-05-06T05:24:03.863Z,20.95
2018-05-06T05:25:06.345Z,20.94
2018-05-06T05:26:08.848Z,20.94
2018-05-06T05:27:11.357Z,20.94
2018-05-06T05:28:13.833Z,20.94
2018-05-06T05:29:16.301Z,20.93
2018-05-06T05:30:18.807Z,20.92
2018-05-06T05:31:21.310Z,20.92
2018-05-06T05:32:23.786Z,20.91
2018-05-06T05:33:26.290Z,20.91
2018-05-06T05:34:28.810Z,20.91
2018-05-06T05:35:31.311Z,20.91
2018-05-06T05:36:33.801Z,20.91
2018-05-06T05:37:36.292Z,20.90
2018-05-06T05:38:38.781Z,20.91
2018-05-06T05:39:41.250Z,20.90
2018-05-06T05:40:43.757Z,20.89
2018-05-06T05:41:46.258Z,20.89
2018-05-06T05:42:48.748Z,20.90
2018-05-06T05:43:51.247Z,20.89
2018-05-06T05:44:53.728Z,20.89
2018-05-06T05:45:56.276Z,20.88
2018-05-06T05:46:58.754Z,20.88
2018-05-06T05:48:01.222Z,20.88
2018-05-06T05:49:03.721Z,20.88
2018-05-06T05:50:06.230Z,20.87
2018-05-06T05:51:08.720Z,20.87
2018-05-06T05:52:11.194Z,20.87
2018-05-06T05:53:13.704Z,20.87
2018-05-06T05:54:16.208Z,20.87
2018-05-06T05:55:18.716Z,20.87
2018-05-06T05:56:21.213Z,20.87
2018-05-06T05:57:23.686Z,20.87
2018-05-06T05:58:26.257Z,20.86
2018-05-06T05:59:28.771Z,20.86
2018-05-06T06:00:31.298Z,20.86
2018-05-06T06:01:33.871Z,20.86
2018-05-06T06:02:36.296Z,20.86
2018-05-06T06:03:38.784Z,20.86
2018-05-06T06:04:41.289Z,20.86
2018-05-06T06:05:43.776Z,20.86
2018-05-06T06:06:46.257Z,20.87
2018-05-06T06:07:48.776Z,20.87
2018-05-06T06:08:51.260Z,20.87
2018-05-06T06:09:53.781Z,20.87
2018-05-06T06:10:56.271Z,20.87
2018-05-06T06:11:58.758Z,20.87
2018-05-06T06:13:01.266Z,20.86
2018-05-06T06:14:03.827Z,20.86
2018-05-06T06:15:06.329Z,20.86
2018-05-06T06:16:08.837Z,20.86
2018-05-06T06:17:11.341Z,20.86
2018-05-06T06:18:13.863Z,20.86
2018-05-06T06:19:16.393Z,20.86
2018-05-06T06:20:18.877Z,20.86
2018-05-06T06:21:21.366Z,20.86
2018-05-06T06:22:23.861Z,20.86
2018-05-06T06:23:26.363Z,20.86
2018-05-06T06:24:28.929Z,20.86
2018-05-06T06:25:31.397Z,20.86
2018-05-06T06:26:33.884Z,20.85
2018-05-06T06:27:36.367Z,20.84
2018-05-06T06:28:38.853Z,20.84
2018-05-06T06:29:41.358Z,20.84
2018-05-06T06:30:43.865Z,20.84
2018-05-06T06:31:46.363Z,20.83
2018-05-06T06:32:48.848Z,20.84
2018-05-06T06:33:51.369Z,20.83
2018-05-06T06:34:53.854Z,20.83
2018-05-06T06:35:56.341Z,20.83
2018-05-06T06:36:58.846Z,20.83
2018-05-06T06:38:01.342Z,20.82
2018-05-06T06:39:03.844Z,20.83
2018-05-06T06:40:06.341Z,20.83
2018-05-06T06:41:08.830Z,20.83
2018-05-06T06:42:11.309Z,20.83
2018-05-06T06:43:13.782Z,20.83
2018-05-06T06:44:16.280Z,20.84
2018-05-06T06:45:18.777Z,20.83
2018-05-06T06:46:21.279Z,20.84
2018-05-06T06:47:23.758Z,20.85
2018-05-06T06:48:26.261Z,20.86
2018-05-06T06:49:28.825Z,20.86
2018-05-06T06:50:31.386Z,20.86
2018-05-06T06:51:33.863Z,20.87
2018-05-06T06:52:36.401Z,20.87
2018-05-06T06:53:38.962Z,20.87
2018-05-06T06:54:41.457Z,20.88
2018-05-06T06:55:44.005Z,20.88
2018-05-06T06:56:46.485Z,20.88
2018-05-06T06:57:48.987Z,20.88
2018-05-06T06:58:51.474Z,20.88
2018-05-06T06:59:53.971Z,20.89
2018-05-06T07:00:56.461Z,20.88
2018-05-06T07:01:58.963Z,20.89
2018-05-06T07:03:01.472Z,20.89
2018-05-06T07:04:03.951Z,20.89
2018-05-06T07:05:06.485Z,20.89
2018-05-06T07:06:08.998Z,20.89
2018-05-06T07:07:11.529Z,20.90
2018-05-06T07:08:14.039Z,20.89
2018-05-06T07:09:16.529Z,20.89
2018-05-06T07:10:19.014Z,20.86
2018-05-06T07:11:21.546Z,20.84
2018-05-06T07:12:24.021Z,20.80
2018-05-06T07:13:26.579Z,20.79
2018-05-06T07:14:29.088Z,20.75
2018-05-06T07:15:31.701Z,20.73
2018-05-06T07:16:34.174Z,20.69
2018-05-06T07:17:36.673Z,20.66
2018-05-06T07:18:39.243Z,20.64
2018-05-06T07:19:41.801Z,20.62
2018-05-06T07:20:44.290Z,20.60
2018-05-06T07:21:46.795Z,20.57
2018-05-06T07:22:49.297Z,20.57
2018-05-06T07:23:51.825Z,20.58
2018-05-06T07:24:54.328Z,20.58
2018-05-06T07:25:56.845Z,20.58
2018-05-06T07:26:59.326Z,20.57
2018-05-06T07:28:01.874Z,20.57
2018-05-06T07:29:04.368Z,20.55
2018-05-06T07:30:06.857Z,20.54
2018-05-06T07:31:09.344Z,20.54
2018-05-06T07:32:11.860Z,20.53
2018-05-06T07:33:14.352Z,20.54
2018-05-06T07:34:16.822Z,20.54
2018-05-06T07:35:19.324Z,20.54
2018-05-06T07:36:21.804Z,20.51
2018-05-06T07:37:24.305Z,20.51
2018-05-06T07:38:26.811Z,20.50
2018-05-06T07:39:29.301Z,20.48
2018-05-06T07:40:31.809Z,20.46
2018-05-06T07:41:34.449Z,20.45
2018-05-06T07:42:36.964Z,20.44
2018-05-06T07:43:39.456Z,20.45
2018-05-06T07:44:41.941Z,20.43
2018-05-06T07:45:44.507Z,20.42
2018-05-06T07:46:47.012Z,20.41
2018-05-06T07:47:49.492Z,20.43
2018-05-06T07:48:52.010Z,20.42
2018-05-06T07:49:54.482Z,20.41
2018-05-06T07:50:57.004Z,20.41
2018-05-06T07:51:59.498Z,20.42
2018-05-06T07:53:02.085Z,20.43
2018-05-06T07:54:04.554Z,20.43
2018-05-06T07:55:07.138Z,20.44
2018-05-06T07:56:09.700Z,20.45
2018-05-06T07:57:12.200Z,20.46
2018-05-06T07:58:14.685Z,20.47
2018-05-06T07:59:17.190Z,20.48
2018-05-06T08:00:19.663Z,20.51
2018-05-06T08:01:22.168Z,20.52
2018-05-06T08:02:24.729Z,20.53
2018-05-06T08:03:27.217Z,20.54
2018-05-06T08:04:29.722Z,20.54
2018-05-06T08:05:32.203Z,20.55
2018-05-06T08:06:34.704Z,20.56
2018-05-06T08:07:37.176Z,20.57
2018-05-06T08:08:39.668Z,20.58
2018-05-06T08:09:42.157Z,20.59
2018-05-06T08:10:44.716Z,20.58
2018-05-06T08:11:47.202Z,20.60
2018-05-06T08:12:49.685Z,20.61
2018-05-06T08:13:52.173Z,20.61
2018-05-06T08:14:54.641Z,20.61
2018-05-06T08:15:57.122Z,20.63
2018-05-06T08:16:59.643Z,20.63
2018-05-06T08:18:02.144Z,20.64
2018-05-06T08:19:04.618Z,20.64
2018-05-06T08:20:07.091Z,20.65
2018-05-06T08:21:09.614Z,20.65
2018-05-06T08:22:12.109Z,20.65
2018-05-06T08:23:14.603Z,20.66
2018-05-06T08:24:17.112Z,20.66
2018-05-06T08:25:19.600Z,20.66
2018-05-06T08:26:22.119Z,20.67
2018-05-06T08:27:24.624Z,20.68
2018-05-06T08:28:27.108Z,20.68
2018-05-06T08:29:29.597Z,20.68
2018-05-06T08:30:32.109Z,20.69
2018-05-06T08:31:34.609Z,20.69
2018-05-06T08:32:37.157Z,20.70
2018-05-06T08:33:39.713Z,20.70
2018-05-06T08:34:42.272Z,20.71
2018-05-06T08:35:44.791Z,20.71
2018-05-06T08:36:47.270Z,20.71
2018-05-06T08:37:49.756Z,20.71
2018-05-06T08:38:52.234Z,20.72
2018-05-06T08:39:54.744Z,20.72
2018-05-06T08:40:57.267Z,20.73
2018-05-06T08:41:59.764Z,20.73
2018-05-06T08:43:02.303Z,20.74
2018-05-06T08:44:04.790Z,20.74
2018-05-06T08:45:07.292Z,20.74
2018-05-06T08:46:09.787Z,20.75
2018-05-06T08:47:12.257Z,20.75
2018-05-06T08:48:14.779Z,20.75
2018-05-06T08:49:17.272Z,20.75
2018-05-06T08:50:19.760Z,20.76
2018-05-06T08:51:22.270Z,20.77
2018-05-06T08:52:24.756Z,20.76
2018-05-06T08:53:27.264Z,20.77
2018-05-06T08:54:29.733Z,20.77
2018-05-06T08:55:32.239Z,20.77
2018-05-06T08:56:34.720Z,20.77
2018-05-06T08:57:37.226Z,20.77
2018-05-06T08:58:39.693Z,20.78
2018-05-06T08:59:42.220Z,20.78
2018-05-06T09:00:44.686Z,20.79
2018-05-06T09:01:47.198Z,20.78
2018-05-06T09:02:49.762Z,20.79
2018-05-06T09:03:52.320Z,20.79
2018-05-06T09:04:54.877Z,20.79
2018-05-06T09:05:57.441Z,20.80
2018-05-06T09:06:59.910Z,20.80
2018-05-06T09:08:02.408Z,20.80
2018-05-06T09:09:05.696Z,20.81
2018-05-06T09:10:08.201Z,20.81
2018-05-06T09:11:10.758Z,20.81
2018-05-06T09:12:13.178Z,20.82
2018-05-06T09:13:15.687Z,20.82
2018-05-06T09:14:18.188Z,20.82
2018-05-06T09:15:20.655Z,20.82
2018-05-06T09:16:23.121Z,20.83
2018-05-06T09:17:25.625Z,20.83
2018-05-06T09:18:28.135Z,20.83
2018-05-06T09:19:30.670Z,20.83
2018-05-06T09:20:33.159Z,20.83
2018-05-06T09:21:35.644Z,20.83
2018-05-06T09:22:38.194Z,20.84
2018-05-06T09:23:40.685Z,20.84
2018-05-06T09:24:43.215Z,20.83
2018-05-06T09:25:45.724Z,20.85
2018-05-06T09:26:48.230Z,20.84
2018-05-06T09:27:50.787Z,20.85
2018-05-06T09:28:53.353Z,20.85
2018-05-06T09:29:55.911Z,20.85
2018-05-06T09:30:58.470Z,20.86
2018-05-06T09:32:00.961Z,20.86
2018-05-06T09:33:03.425Z,20.86
2018-05-06T09:34:05.943Z,20.86
2018-05-06T09:35:08.420Z,20.87
2018-05-06T09:36:10.905Z,20.87
2018-05-06T09:37:13.386Z,20.88
2018-05-06T09:38:15.874Z,20.88
2018-05-06T09:39:18.385Z,20.88
2018-05-06T09:40:20.865Z,20.88
2018-05-06T09:41:23.362Z,20.88
2018-05-06T09:42:25.956Z,20.89
2018-05-06T09:43:28.868Z,20.89
2018-05-06T09:44:31.855Z,20.90
2018-05-06T09:45:34.414Z,20.89
2018-05-06T09:46:37.290Z,20.89
2018-05-06T09:47:41.039Z,20.90
2018-05-06T09:48:43.887Z,20.90
2018-05-06T09:49:46.399Z,20.91
2018-05-06T09:50:48.885Z,20.90
2018-05-06T09:51:51.397Z,20.91
2018-05-06T09:52:53.879Z,20.91
2018-05-06T09:53:56.389Z,20.91
2018-05-06T09:54:58.878Z,20.91
2018-05-06T09:56:01.409Z,20.91
2018-05-06T09:57:03.909Z,20.92
2018-05-06T09:58:06.439Z,20.92
2018-05-06T09:59:08.915Z,20.92
2018-05-06T10:00:11.404Z,20.92
2018-05-06T10:01:14.003Z,20.93
2018-05-06T10:02:16.508Z,20.93
2018-05-06T10:03:19.019Z,20.93
2018-05-06T10:04:21.513Z,20.93
2018-05-06T10:05:24.015Z,20.93
2018-05-06T10:06:26.520Z,20.93
2018-05-06T10:07:29.357Z,20.94
2018-05-06T10:08:31.887Z,20.94
2018-05-06T10:09:34.523Z,20.94
2018-05-06T10:10:37.045Z,20.95
2018-05-06T10:11:39.522Z,20.95
2018-05-06T10:12:42.029Z,20.96
2018-05-06T10:13:44.513Z,20.96
2018-05-06T10:14:47.065Z,20.97
2018-05-06T10:15:49.619Z,20.97
2018-05-06T10:16:52.071Z,20.97
2018-05-06T10:17:54.596Z,20.97
2018-05-06T10:18:57.162Z,20.97
2018-05-06T10:19:59.719Z,20.98
2018-05-06T10:21:02.211Z,20.98
2018-05-06T10:22:04.755Z,20.99
2018-05-06T10:23:07.284Z,20.98
2018-05-06T10:24:09.772Z,20.99
2018-05-06T10:25:12.271Z,20.99
2018-05-06T10:26:14.803Z,20.98
2018-05-06T10:27:17.320Z,20.98
2018-05-06T10:28:19.827Z,20.99
2018-05-06T10:29:22.316Z,20.99
2018-05-06T10:30:24.821Z,20.99
2018-05-06T10:31:27.306Z,20.99
2018-05-06T10:32:29.824Z,21.00
2018-05-06T10:33:32.352Z,21.00
2018-05-06T10:34:34.853Z,21.01
2018-05-06T10:35:37.359Z,21.00
2018-05-06T10:36:39.840Z,21.00
2018-05-06T10:37:42.344Z,21.00
2018-05-06T10:38:44.837Z,21.01
2018-05-06T10:39:47.315Z,21.02
2018-05-06T10:40:49.896Z,21.01
2018-05-06T10:41:52.404Z,21.01
2018-05-06T10:42:54.898Z,21.02
2018-05-06T10:43:57.431Z,21.02
2018-05-06T10:44:59.927Z,21.02
2018-05-06T10:46:02.427Z,21.02
2018-05-06T10:47:04.969Z,21.02
2018-05-06T10:48:07.445Z,21.02
2018-05-06T10:49:10.001Z,21.02
2018-05-06T10:50:12.462Z,21.03
2018-05-06T10:51:14.969Z,21.03
2018-05-06T10:52:17.473Z,21.03
2018-05-06T10:53:20.003Z,21.03
2018-05-06T10:54:22.472Z,21.04
2018-05-06T10:55:25.116Z,21.04
2018-05-06T10:56:27.722Z,21.03
2018-05-06T10:57:30.397Z,21.03
2018-05-06T10:58:32.878Z,21.04
2018-05-06T10:59:35.462Z,21.04
2018-05-06T11:00:37.948Z,21.04
2018-05-06T11:01:40.446Z,21.04
2018-05-06T11:02:42.941Z,21.04
2018-05-06T11:03:45.443Z,21.05
2018-05-06T11:04:47.929Z,21.05
2018-05-06T11:05:50.424Z,21.05
2018-05-06T11:06:52.950Z,21.05
2018-05-06T11:07:55.422Z,21.05
2018-05-06T11:08:57.892Z,21.05
2018-05-06T11:10:00.362Z,21.05
2018-05-06T11:11:02.855Z,21.05
2018-05-06T11:12:05.368Z,21.06
2018-05-06T11:13:07.930Z,21.06
2018-05-06T11:14:10.432Z,21.06
2018-05-06T11:15:12.971Z,21.06
2018-05-06T11:16:15.493Z,21.06
2018-05-06T11:17:18.066Z,21.06
2018-05-06T11:18:20.567Z,21.06
2018-05-06T11:19:23.067Z,21.07
2018-05-06T11:20:25.552Z,21.08
2018-05-06T11:21:28.304Z,21.07
2018-05-06T11:22:30.804Z,21.08
2018-05-06T11:23:33.321Z,21.08
2018-05-06T11:24:35.824Z,21.08
2018-05-06T11:25:38.340Z,21.08
2018-05-06T11:26:40.806Z,21.08
2018-05-06T11:27:43.361Z,21.08
2018-05-06T11:28:45.873Z,21.08
2018-05-06T11:29:48.361Z,21.09
2018-05-06T11:30:50.852Z,21.08
2018-05-06T11:31:53.322Z,21.09
2018-05-06T11:32:55.844Z,21.09
2018-05-06T11:33:58.311Z,21.09
2018-05-06T11:35:00.796Z,21.09
2018-05-06T11:36:03.337Z,21.09
2018-05-06T11:37:05.806Z,21.09
2018-05-06T11:38:08.274Z,21.10
2018-05-06T11:39:10.800Z,21.09
2018-05-06T11:40:13.305Z,21.10
2018-05-06T11:41:15.803Z,21.10
2018-05-06T11:42:18.381Z,21.10
2018-05-06T11:43:21.042Z,21.10
2018-05-06T11:44:23.536Z,21.10
2018-05-06T11:45:26.023Z,21.10
2018-05-06T11:46:28.744Z,21.10
2018-05-06T11:47:31.240Z,21.10
2018-05-06T11:48:33.744Z,21.11
2018-05-06T11:49:36.277Z,21.10
2018-05-06T11:50:38.783Z,21.11
2018-05-06T11:51:41.262Z,21.11
2018-05-06T11:52:43.729Z,21.11
2018-05-06T11:53:46.199Z,21.11
2018-05-06T11:54:48.876Z,21.11
2018-05-06T11:55:51.362Z,21.11
2018-05-06T11:56:53.864Z,21.11
2018-05-06T11:57:56.368Z,21.11
2018-05-06T11:58:58.848Z,21.11
2018-05-06T12:00:01.344Z,21.12
2018-05-06T12:01:03.828Z,21.11
2018-05-06T12:02:06.711Z,21.11
2018-05-06T12:03:09.576Z,21.11
2018-05-06T12:04:12.489Z,21.12
2018-05-06T12:05:15.013Z,21.11
2018-05-06T12:06:17.499Z,21.12
2018-05-06T12:07:20.026Z,21.12
2018-05-06T12:08:22.513Z,21.11
2018-05-06T12:09:25.046Z,21.11
2018-05-06T12:10:27.606Z,21.12
2018-05-06T12:11:30.090Z,21.11
2018-05-06T12:12:32.566Z,21.12
2018-05-06T12:13:35.079Z,21.11
2018-05-06T12:14:37.571Z,21.11
2018-05-06T12:15:40.151Z,21.11
2018-05-06T12:16:42.631Z,21.12
2018-05-06T12:17:45.103Z,21.11
2018-05-06T12:18:47.604Z,21.11
2018-05-06T12:19:50.112Z,21.11
2018-05-06T12:20:52.596Z,21.12
2018-05-06T12:21:55.107Z,21.11
2018-05-06T12:22:57.582Z,21.11
2018-05-06T12:24:00.135Z,21.11
2018-05-06T12:25:02.919Z,21.11
2018-05-06T12:26:05.798Z,21.12
2018-05-06T12:27:08.362Z,21.11
2018-05-06T12:28:10.867Z,21.12
2018-05-06T12:29:13.393Z,21.11
2018-05-06T12:30:17.470Z,21.11
2018-05-06T12:31:19.956Z,21.11
2018-05-06T12:32:22.465Z,21.11
2018-05-06T12:33:24.953Z,21.12
2018-05-06T12:34:27.435Z,21.12
2018-05-06T12:35:29.940Z,21.12
2018-05-06T12:36:32.411Z,21.11
2018-05-06T12:37:34.910Z,21.11
2018-05-06T12:38:37.412Z,21.11
2018-05-06T12:39:39.917Z,21.12
2018-05-06T12:40:42.446Z,21.12
2018-05-06T12:41:44.986Z,21.12
2018-05-06T12:42:47.582Z,21.11
2018-05-06T12:43:50.098Z,21.11
2018-05-06T12:44:52.704Z,21.12
2018-05-06T12:45:55.264Z,21.12
2018-05-06T12:46:57.926Z,21.12
2018-05-06T12:48:00.466Z,21.12
2018-05-06T12:49:03.044Z,21.12
2018-05-06T12:50:05.530Z,21.12
2018-05-06T12:51:08.021Z,21.12
2018-05-06T12:52:10.587Z,21.12
2018-05-06T12:53:13.084Z,21.13
2018-05-06T12:54:15.610Z,21.12
2018-05-06T12:55:18.174Z,21.13
2018-05-06T12:56:20.650Z,21.13
2018-05-06T12:57:23.172Z,21.13
2018-05-06T12:58:25.913Z,21.13
2018-05-06T12:59:28.439Z,21.13
2018-05-06T13:00:30.952Z,21.13
2018-05-06T13:01:33.453Z,21.13
2018-05-06T13:02:35.950Z,21.13
2018-05-06T13:03:38.441Z,21.13
2018-05-06T13:04:41.043Z,21.14
2018-05-06T13:05:44.397Z,21.14
2018-05-06T13:06:47.100Z,21.14
2018-05-06T13:07:52.121Z,21.14
2018-05-06T13:08:54.991Z,21.14
2018-05-06T13:09:57.558Z,21.14
2018-05-06T13:11:00.088Z,21.14
2018-05-06T13:12:02.627Z,21.14
2018-05-06T13:13:05.150Z,21.14
2018-05-06T13:14:07.663Z,21.14
2018-05-06T13:15:10.185Z,21.14
2018-05-06T13:16:12.696Z,21.14
2018-05-06T13:17:15.189Z,21.15
2018-05-06T13:18:17.780Z,21.15
2018-05-06T13:19:20.284Z,21.15
2018-05-06T13:20:22.841Z,21.16
2018-05-06T13:21:25.376Z,21.15
2018-05-06T13:22:27.885Z,21.16
2018-05-06T13:23:30.373Z,21.15
2018-05-06T13:24:32.871Z,21.16
2018-05-06T13:25:35.346Z,21.16
2018-05-06T13:26:37.818Z,21.16
2018-05-06T13:27:40.302Z,21.16
2018-05-06T13:28:42.785Z,21.17